sensor_id;sensor_type;location;lat;lon;timestamp;pressure;altitude;pressure_sealevel;temperature
70435;BMP280;57876;47.792;12.960;2022-11-14T00:01:31;96890.44;;;17.86
70435;BMP280;57876;47.792;12.960;2022-11-14T00:03:56;96882.06;;;17.84
70435;BMP280;57876;47.792;12.960;2022-11-14T00:06:20;96873.28;;;17.86
70435;BMP280;57876;47.792;12.960;2022-11-14T00:08:44;96882.06;;;17.84
70435;BMP280;57876;47.792;12.960;2022-11-14T00:11:09;96887.53;;;17.84
70435;BMP280;57876;47.792;12.960;2022-11-14T00:13:34;96884.06;;;17.84
70435;BMP280;57876;47.792;12.960;2022-11-14T00:15:58;96879.31;;;17.84
70435;BMP280;57876;47.792;12.960;2022-11-14T00:18:23;96881.19;;;17.82
70435;BMP280;57876;47.792;12.960;2022-11-14T00:20:49;96883.34;;;17.83
70435;BMP280;57876;47.792;12.960;2022-11-14T00:23:14;96886.66;;;17.82
70435;BMP280;57876;47.792;12.960;2022-11-14T00:25:38;96881.75;;;17.80
70435;BMP280;57876;47.792;12.960;2022-11-14T00:28:02;96878.28;;;17.80
70435;BMP280;57876;47.792;12.960;2022-11-14T00:30:27;96881.00;;;17.80
70435;BMP280;57876;47.792;12.960;2022-11-14T00:32:52;96876.09;;;17.78
70435;BMP280;57876;47.792;12.960;2022-11-14T00:35:16;96890.50;;;17.79
70435;BMP280;57876;47.792;12.960;2022-11-14T00:37:40;96882.28;;;17.79
70435;BMP280;57876;47.792;12.960;2022-11-14T00:40:05;96867.16;;;17.78
70435;BMP280;57876;47.792;12.960;2022-11-14T00:42:30;96881.44;;;17.76
70435;BMP280;57876;47.792;12.960;2022-11-14T00:44:54;96856.81;;;17.76
70435;BMP280;57876;47.792;12.960;2022-11-14T00:47:18;96871.03;;;17.75
70435;BMP280;57876;47.792;12.960;2022-11-14T00:49:43;96855.34;;;17.75
70435;BMP280;57876;47.792;12.960;2022-11-14T00:52:07;96864.28;;;17.76
70435;BMP280;57876;47.792;12.960;2022-11-14T00:54:31;96864.84;;;17.74
70435;BMP280;57876;47.792;12.960;2022-11-14T00:56:56;96877.06;;;17.73
70435;BMP280;57876;47.792;12.960;2022-11-14T00:59:20;96868.84;;;17.73
70435;BMP280;57876;47.792;12.960;2022-11-14T01:01:44;96881.25;;;17.74
70435;BMP280;57876;47.792;12.960;2022-11-14T01:04:09;96861.97;;;17.72
70435;BMP280;57876;47.792;12.960;2022-11-14T01:06:33;96874.31;;;17.73
70435;BMP280;57876;47.792;12.960;2022-11-14T01:08:57;96883.13;;;17.72
70435;BMP280;57876;47.792;12.960;2022-11-14T01:11:22;96880.41;;;17.72
70435;BMP280;57876;47.792;12.960;2022-11-14T01:13:46;96880.41;;;17.72
70435;BMP280;57876;47.792;12.960;2022-11-14T01:16:11;96855.03;;;17.71
70435;BMP280;57876;47.792;12.960;2022-11-14T01:18:37;96862.53;;;17.71
70435;BMP280;57876;47.792;12.960;2022-11-14T01:21:09;96846.13;;;17.71
70435;BMP280;57876;47.792;12.960;2022-11-14T01:23:34;96850.84;;;17.70
70435;BMP280;57876;47.792;12.960;2022-11-14T01:26:04;96844.66;;;17.70
70435;BMP280;57876;47.792;12.960;2022-11-14T01:28:28;96840.47;;;17.69
70435;BMP280;57876;47.792;12.960;2022-11-14T01:30:53;96840.47;;;17.69
70435;BMP280;57876;47.792;12.960;2022-11-14T01:33:17;96840.47;;;17.69
70435;BMP280;57876;47.792;12.960;2022-11-14T01:35:41;96847.94;;;17.68
70435;BMP280;57876;47.792;12.960;2022-11-14T01:38:06;96844.50;;;17.68
70435;BMP280;57876;47.792;12.960;2022-11-14T01:40:31;96849.25;;;17.67
70435;BMP280;57876;47.792;12.960;2022-11-14T01:45:55;96832.84;;;17.67
70435;BMP280;57876;47.792;12.960;2022-11-14T01:48:40;96831.41;;;17.66
70435;BMP280;57876;47.792;12.960;2022-11-14T01:53:39;96834.69;;;17.65
70435;BMP280;57876;47.792;12.960;2022-11-14T01:56:05;96829.94;;;17.65
70435;BMP280;57876;47.792;12.960;2022-11-14T01:58:32;96847.66;;;17.64
70435;BMP280;57876;47.792;12.960;2022-11-14T02:00:58;96834.69;;;17.65
70435;BMP280;57876;47.792;12.960;2022-11-14T02:03:23;96844.91;;;17.64
70435;BMP280;57876;47.792;12.960;2022-11-14T02:05:48;96838.69;;;17.64
70435;BMP280;57876;47.792;12.960;2022-11-14T02:08:14;96834.53;;;17.63
70435;BMP280;57876;47.792;12.960;2022-11-14T02:10:38;96834.53;;;17.63
70435;BMP280;57876;47.792;12.960;2022-11-14T02:13:03;96844.03;;;17.62
70435;BMP280;57876;47.792;12.960;2022-11-14T02:15:27;96835.81;;;17.62
70435;BMP280;57876;47.792;12.960;2022-11-14T02:17:52;96842.59;;;17.61
70435;BMP280;57876;47.792;12.960;2022-11-14T02:20:21;96832.19;;;17.59
70435;BMP280;57876;47.792;12.960;2022-11-14T02:22:46;96838.41;;;17.60
70435;BMP280;57876;47.792;12.960;2022-11-14T02:25:12;96841.13;;;17.60
70435;BMP280;57876;47.792;12.960;2022-11-14T02:27:40;96839.69;;;17.59
70435;BMP280;57876;47.792;12.960;2022-11-14T02:30:06;96831.47;;;17.59
70435;BMP280;57876;47.792;12.960;2022-11-14T02:32:31;96837.53;;;17.57
70435;BMP280;57876;47.792;12.960;2022-11-14T02:34:55;96850.50;;;17.57
70435;BMP280;57876;47.792;12.960;2022-11-14T02:37:20;96840.25;;;17.57
70435;BMP280;57876;47.792;12.960;2022-11-14T02:39:44;96834.78;;;17.57
70435;BMP280;57876;47.792;12.960;2022-11-14T02:42:08;96827.88;;;17.56
70435;BMP280;57876;47.792;12.960;2022-11-14T02:44:33;96820.94;;;17.55
70435;BMP280;57876;47.792;12.960;2022-11-14T02:46:57;96820.22;;;17.55
70435;BMP280;57876;47.792;12.960;2022-11-14T02:49:22;96813.34;;;17.54
70435;BMP280;57876;47.792;12.960;2022-11-14T02:51:46;96809.13;;;17.53
70435;BMP280;57876;47.792;12.960;2022-11-14T02:54:10;96809.13;;;17.53
70435;BMP280;57876;47.792;12.960;2022-11-14T02:56:35;96800.91;;;17.53
70435;BMP280;57876;47.792;12.960;2022-11-14T02:58:59;96802.94;;;17.52
70435;BMP280;57876;47.792;12.960;2022-11-14T03:01:24;96802.78;;;17.50
70435;BMP280;57876;47.792;12.960;2022-11-14T03:03:48;96813.16;;;17.52
70435;BMP280;57876;47.792;12.960;2022-11-14T03:06:12;96825.38;;;17.51
70435;BMP280;57876;47.792;12.960;2022-11-14T03:08:37;96836.31;;;17.51
70435;BMP280;57876;47.792;12.960;2022-11-14T03:11:08;96819.75;;;17.49
70435;BMP280;57876;47.792;12.960;2022-11-14T03:13:34;96817.72;;;17.49
70435;BMP280;57876;47.792;12.960;2022-11-14T03:16:10;96823.22;;;17.49
70435;BMP280;57876;47.792;12.960;2022-11-14T03:18:35;96818.31;;;17.48
70435;BMP280;57876;47.792;12.960;2022-11-14T03:21:11;96818.31;;;17.48
70435;BMP280;57876;47.792;12.960;2022-11-14T03:23:36;96821.03;;;17.48
70435;BMP280;57876;47.792;12.960;2022-11-14T03:26:02;96821.03;;;17.48
70435;BMP280;57876;47.792;12.960;2022-11-14T03:28:27;96814.88;;;17.47
70435;BMP280;57876;47.792;12.960;2022-11-14T03:30:52;96808.66;;;17.47
70435;BMP280;57876;47.792;12.960;2022-11-14T03:33:16;96811.38;;;17.47
70435;BMP280;57876;47.792;12.960;2022-11-14T03:35:42;96809.94;;;17.46
70435;BMP280;57876;47.792;12.960;2022-11-14T03:38:06;96815.41;;;17.46
70435;BMP280;57876;47.792;12.960;2022-11-14T03:40:31;96814.66;;;17.45
70435;BMP280;57876;47.792;12.960;2022-11-14T03:42:56;96813.97;;;17.45
70435;BMP280;57876;47.792;12.960;2022-11-14T03:45:20;96824.16;;;17.44
70435;BMP280;57876;47.792;12.960;2022-11-14T03:47:44;96805.00;;;17.44
70435;BMP280;57876;47.792;12.960;2022-11-14T03:50:09;96810.47;;;17.44
70435;BMP280;57876;47.792;12.960;2022-11-14T03:52:33;96812.53;;;17.44
70435;BMP280;57876;47.792;12.960;2022-11-14T03:54:57;96802.88;;;17.43
70435;BMP280;57876;47.792;12.960;2022-11-14T03:57:22;96793.22;;;17.42
70435;BMP280;57876;47.792;12.960;2022-11-14T03:59:46;96792.47;;;17.41
70435;BMP280;57876;47.792;12.960;2022-11-14T04:02:10;96814.38;;;17.41
70435;BMP280;57876;47.792;12.960;2022-11-14T04:04:35;96822.56;;;17.41
70435;BMP280;57876;47.792;12.960;2022-11-14T04:06:59;96814.38;;;17.41
70435;BMP280;57876;47.792;12.960;2022-11-14T04:09:24;96793.78;;;17.40
70435;BMP280;57876;47.792;12.960;2022-11-14T04:11:48;96801.25;;;17.40
70435;BMP280;57876;47.792;12.960;2022-11-14T04:14:12;96810.19;;;17.40
70435;BMP280;57876;47.792;12.960;2022-11-14T04:16:37;96814.19;;;17.39
70435;BMP280;57876;47.792;12.960;2022-11-14T04:19:01;96821.13;;;17.40
70435;BMP280;57876;47.792;12.960;2022-11-14T04:21:26;96798.53;;;17.40
70435;BMP280;57876;47.792;12.960;2022-11-14T04:23:50;96797.78;;;17.39
70435;BMP280;57876;47.792;12.960;2022-11-14T04:26:15;96808.72;;;17.39
70435;BMP280;57876;47.792;12.960;2022-11-14T04:28:39;96812.78;;;17.38
70435;BMP280;57876;47.792;12.960;2022-11-14T04:31:04;96810.03;;;17.38
70435;BMP280;57876;47.792;12.960;2022-11-14T04:33:28;96801.09;;;17.38
70435;BMP280;57876;47.792;12.960;2022-11-14T04:35:52;96814.06;;;17.37
70435;BMP280;57876;47.792;12.960;2022-11-14T04:38:17;96825.00;;;17.37
70435;BMP280;57876;47.792;12.960;2022-11-14T04:40:50;96816.06;;;17.37
70435;BMP280;57876;47.792;12.960;2022-11-14T04:43:15;96811.31;;;17.37
70435;BMP280;57876;47.792;12.960;2022-11-14T04:45:39;96807.84;;;17.37
70435;BMP280;57876;47.792;12.960;2022-11-14T04:48:03;96811.31;;;17.37
70435;BMP280;57876;47.792;12.960;2022-11-14T04:50:28;96818.78;;;17.37
70435;BMP280;57876;47.792;12.960;2022-11-14T04:52:52;96819.38;;;17.35
70435;BMP280;57876;47.792;12.960;2022-11-14T04:55:17;96822.09;;;17.35
70435;BMP280;57876;47.792;12.960;2022-11-14T04:57:41;96819.94;;;17.34
70435;BMP280;57876;47.792;12.960;2022-11-14T05:00:06;96818.63;;;17.35
70435;BMP280;57876;47.792;12.960;2022-11-14T05:02:31;96822.09;;;17.35
70435;BMP280;57876;47.792;12.960;2022-11-14T05:04:56;96817.94;;;17.34
70435;BMP280;57876;47.792;12.960;2022-11-14T05:07:20;96823.97;;;17.33
70435;BMP280;57876;47.792;12.960;2022-11-14T05:09:44;96826.69;;;17.33
70435;BMP280;57876;47.792;12.960;2022-11-14T05:12:09;96839.66;;;17.32
70435;BMP280;57876;47.792;12.960;2022-11-14T05:14:33;96836.91;;;17.32
70435;BMP280;57876;47.792;12.960;2022-11-14T05:16:57;96829.41;;;17.33
70435;BMP280;57876;47.792;12.960;2022-11-14T05:19:22;96835.63;;;17.33
70435;BMP280;57876;47.792;12.960;2022-11-14T05:21:46;96825.25;;;17.32
70435;BMP280;57876;47.792;12.960;2022-11-14T05:24:11;96825.25;;;17.32
70435;BMP280;57876;47.792;12.960;2022-11-14T05:26:36;96823.78;;;17.31
70435;BMP280;57876;47.792;12.960;2022-11-14T05:29:00;96823.78;;;17.31
70435;BMP280;57876;47.792;12.960;2022-11-14T05:31:24;96823.78;;;17.31
70435;BMP280;57876;47.792;12.960;2022-11-14T05:33:49;96820.31;;;17.30
70435;BMP280;57876;47.792;12.960;2022-11-14T05:36:15;96830.69;;;17.32
70435;BMP280;57876;47.792;12.960;2022-11-14T05:38:40;96833.75;;;17.36
70435;BMP280;57876;47.792;12.960;2022-11-14T05:41:06;96845.72;;;17.40
70435;BMP280;57876;47.792;12.960;2022-11-14T05:43:31;96852.41;;;17.47
70435;BMP280;57876;47.792;12.960;2022-11-14T05:45:59;96851.44;;;17.52
70435;BMP280;57876;47.792;12.960;2022-11-14T05:48:24;96848.59;;;17.59
70435;BMP280;57876;47.792;12.960;2022-11-14T05:50:53;96840.88;;;17.65
70435;BMP280;57876;47.792;12.960;2022-11-14T05:53:17;96846.84;;;17.71
70435;BMP280;57876;47.792;12.960;2022-11-14T05:55:42;96845.88;;;17.76
70435;BMP280;57876;47.792;12.960;2022-11-14T05:58:06;96848.91;;;17.80
70435;BMP280;57876;47.792;12.960;2022-11-14T06:00:30;96858.88;;;17.85
70435;BMP280;57876;47.792;12.960;2022-11-14T06:02:55;96855.16;;;17.90
70435;BMP280;57876;47.792;12.960;2022-11-14T06:05:21;96854.72;;;17.93
70435;BMP280;57876;47.792;12.960;2022-11-14T06:07:45;96852.28;;;17.97
70435;BMP280;57876;47.792;12.960;2022-11-14T06:10:10;96867.03;;;18.02
70435;BMP280;57876;47.792;12.960;2022-11-14T06:12:34;96872.78;;;18.06
70435;BMP280;57876;47.792;12.960;2022-11-14T06:14:59;96871.69;;;18.09
70435;BMP280;57876;47.792;12.960;2022-11-14T06:17:23;96868.53;;;18.12
70435;BMP280;57876;47.792;12.960;2022-11-14T06:19:47;96869.97;;;18.13
70435;BMP280;57876;47.792;12.960;2022-11-14T06:22:12;96869.41;;;18.15
70435;BMP280;57876;47.792;12.960;2022-11-14T06:24:36;96875.78;;;18.17
70435;BMP280;57876;47.792;12.960;2022-11-14T06:27:01;96872.28;;;18.17
70435;BMP280;57876;47.792;12.960;2022-11-14T06:29:25;96874.50;;;18.18
70435;BMP280;57876;47.792;12.960;2022-11-14T06:31:49;96867.69;;;18.19
70435;BMP280;57876;47.792;12.960;2022-11-14T06:34:14;96856.75;;;18.19
70435;BMP280;57876;47.792;12.960;2022-11-14T06:36:38;96858.75;;;18.19
70435;BMP280;57876;47.792;12.960;2022-11-14T06:39:02;96850.53;;;18.19
70435;BMP280;57876;47.792;12.960;2022-11-14T06:41:27;96858.75;;;18.19
70435;BMP280;57876;47.792;12.960;2022-11-14T06:43:51;96858.75;;;18.19
70435;BMP280;57876;47.792;12.960;2022-11-14T06:46:19;96867.56;;;18.17
70435;BMP280;57876;47.792;12.960;2022-11-14T06:48:44;96853.13;;;18.17
70435;BMP280;57876;47.792;12.960;2022-11-14T06:51:10;96867.69;;;18.19
70435;BMP280;57876;47.792;12.960;2022-11-14T06:53:35;96868.84;;;18.16
70435;BMP280;57876;47.792;12.960;2022-11-14T06:56:05;96862.63;;;18.16
70435;BMP280;57876;47.792;12.960;2022-11-14T06:58:32;96875.03;;;18.17
70435;BMP280;57876;47.792;12.960;2022-11-14T07:01:06;96879.97;;;18.18
70435;BMP280;57876;47.792;12.960;2022-11-14T07:03:31;96885.44;;;18.18
70435;BMP280;57876;47.792;12.960;2022-11-14T07:05:59;96896.94;;;18.17
70435;BMP280;57876;47.792;12.960;2022-11-14T07:08:24;96894.19;;;18.17
70435;BMP280;57876;47.792;12.960;2022-11-14T07:10:48;96888.19;;;18.18
70435;BMP280;57876;47.792;12.960;2022-11-14T07:13:13;96884.13;;;18.19
70435;BMP280;57876;47.792;12.960;2022-11-14T07:15:37;96875.16;;;18.19
70435;BMP280;57876;47.792;12.960;2022-11-14T07:18:01;96869.69;;;18.19
70435;BMP280;57876;47.792;12.960;2022-11-14T07:20:26;96882.09;;;18.20
70435;BMP280;57876;47.792;12.960;2022-11-14T07:22:50;96875.91;;;18.19
70435;BMP280;57876;47.792;12.960;2022-11-14T07:25:15;96866.97;;;18.19
70435;BMP280;57876;47.792;12.960;2022-11-14T07:27:39;96875.34;;;18.21
70435;BMP280;57876;47.792;12.960;2022-11-14T07:30:04;96866.41;;;18.20
70435;BMP280;57876;47.792;12.960;2022-11-14T07:32:28;96858.19;;;18.20
70435;BMP280;57876;47.792;12.960;2022-11-14T07:34:53;96855.44;;;18.20
70435;BMP280;57876;47.792;12.960;2022-11-14T07:37:17;96858.91;;;18.21
70435;BMP280;57876;47.792;12.960;2022-11-14T07:39:41;96874.06;;;18.22
70435;BMP280;57876;47.792;12.960;2022-11-14T07:42:06;96875.34;;;18.21
70435;BMP280;57876;47.792;12.960;2022-11-14T07:44:30;96878.81;;;18.21
70435;BMP280;57876;47.792;12.960;2022-11-14T07:46:54;96875.34;;;18.21
70435;BMP280;57876;47.792;12.960;2022-11-14T07:49:19;96881.69;;;18.23
70435;BMP280;57876;47.792;12.960;2022-11-14T07:51:43;96879.56;;;18.22
70435;BMP280;57876;47.792;12.960;2022-11-14T07:54:11;96872.03;;;18.22
70435;BMP280;57876;47.792;12.960;2022-11-14T07:56:36;96874.19;;;18.24
70435;BMP280;57876;47.792;12.960;2022-11-14T07:59:00;96874.91;;;18.24
70435;BMP280;57876;47.792;12.960;2022-11-14T08:01:25;96863.25;;;18.24
70435;BMP280;57876;47.792;12.960;2022-11-14T08:03:49;96861.97;;;18.25
70435;BMP280;57876;47.792;12.960;2022-11-14T08:06:14;96867.44;;;18.25
70435;BMP280;57876;47.792;12.960;2022-11-14T08:08:39;96868.16;;;18.25
70435;BMP280;57876;47.792;12.960;2022-11-14T08:11:04;96869.59;;;18.26
70435;BMP280;57876;47.792;12.960;2022-11-14T08:13:29;96868.16;;;18.25
70435;BMP280;57876;47.792;12.960;2022-11-14T08:15:54;96862.69;;;18.25
70435;BMP280;57876;47.792;12.960;2022-11-14T08:18:19;96857.19;;;18.25
70435;BMP280;57876;47.792;12.960;2022-11-14T08:20:43;96844.78;;;18.24
70435;BMP280;57876;47.792;12.960;2022-11-14T08:23:09;96850.28;;;18.24
70435;BMP280;57876;47.792;12.960;2022-11-14T08:25:33;96852.28;;;18.24
70435;BMP280;57876;47.792;12.960;2022-11-14T08:27:57;96844.09;;;18.24
70435;BMP280;57876;47.792;12.960;2022-11-14T08:30:22;96838.59;;;18.24
70435;BMP280;57876;47.792;12.960;2022-11-14T08:32:46;96841.34;;;18.24
70435;BMP280;57876;47.792;12.960;2022-11-14T08:35:11;96846.09;;;18.23
70435;BMP280;57876;47.792;12.960;2022-11-14T08:37:35;96857.03;;;18.23
70435;BMP280;57876;47.792;12.960;2022-11-14T08:39:59;96853.00;;;18.24
70435;BMP280;57876;47.792;12.960;2022-11-14T08:42:24;96851.56;;;18.23
70435;BMP280;57876;47.792;12.960;2022-11-14T08:44:48;96853.00;;;18.24
70435;BMP280;57876;47.792;12.960;2022-11-14T08:47:12;96851.72;;;18.25
70435;BMP280;57876;47.792;12.960;2022-11-14T08:49:37;96854.47;;;18.25
70435;BMP280;57876;47.792;12.960;2022-11-14T08:52:01;96846.97;;;18.26
70435;BMP280;57876;47.792;12.960;2022-11-14T08:54:25;96840.75;;;18.25
70435;BMP280;57876;47.792;12.960;2022-11-14T08:56:50;96842.94;;;18.27
70435;BMP280;57876;47.792;12.960;2022-11-14T08:59:14;96836.03;;;18.26
70435;BMP280;57876;47.792;12.960;2022-11-14T09:01:38;96828.53;;;18.26
70435;BMP280;57876;47.792;12.960;2022-11-14T09:04:03;96824.50;;;18.27
70435;BMP280;57876;47.792;12.960;2022-11-14T09:06:28;96818.31;;;18.27
70435;BMP280;57876;47.792;12.960;2022-11-14T09:08:52;96823.91;;;18.29
70435;BMP280;57876;47.792;12.960;2022-11-14T09:11:16;96814.28;;;18.28
70435;BMP280;57876;47.792;12.960;2022-11-14T09:13:41;96808.06;;;18.27
70435;BMP280;57876;47.792;12.960;2022-11-14T09:16:05;96810.22;;;18.29
70435;BMP280;57876;47.792;12.960;2022-11-14T09:18:30;96812.22;;;18.28
70435;BMP280;57876;47.792;12.960;2022-11-14T09:21:06;96815.69;;;18.29
70435;BMP280;57876;47.792;12.960;2022-11-14T09:23:31;96825.38;;;18.30
70435;BMP280;57876;47.792;12.960;2022-11-14T09:25:55;96822.63;;;18.30
70435;BMP280;57876;47.792;12.960;2022-11-14T09:28:20;96815.69;;;18.29
70435;BMP280;57876;47.792;12.960;2022-11-14T09:30:44;96816.44;;;18.29
70435;BMP280;57876;47.792;12.960;2022-11-14T09:33:09;96822.63;;;18.30
70435;BMP280;57876;47.792;12.960;2022-11-14T09:35:33;96814.41;;;18.30
70435;BMP280;57876;47.792;12.960;2022-11-14T09:38:04;96821.91;;;18.29
70435;BMP280;57876;47.792;12.960;2022-11-14T09:40:30;96823.38;;;18.30
70435;BMP280;57876;47.792;12.960;2022-11-14T09:43:20;96817.16;;;18.30
70435;BMP280;57876;47.792;12.960;2022-11-14T09:45:48;96811.13;;;18.31
70435;BMP280;57876;47.792;12.960;2022-11-14T09:48:17;96802.16;;;18.31
70435;BMP280;57876;47.792;12.960;2022-11-14T09:50:47;96792.66;;;18.32
70435;BMP280;57876;47.792;12.960;2022-11-14T09:55:57;96794.81;;;18.33
70435;BMP280;57876;47.792;12.960;2022-11-14T09:58:22;96792.06;;;18.33
70435;BMP280;57876;47.792;12.960;2022-11-14T10:00:50;96792.66;;;18.32
70435;BMP280;57876;47.792;12.960;2022-11-14T10:03:32;96797.56;;;18.33
70435;BMP280;57876;47.792;12.960;2022-11-14T10:08:54;96786.59;;;18.33
70435;BMP280;57876;47.792;12.960;2022-11-14T10:11:37;96767.44;;;18.33
70435;BMP280;57876;47.792;12.960;2022-11-14T10:20:00;96772.91;;;18.33
70435;BMP280;57876;47.792;12.960;2022-11-14T10:30:38;96771.34;;;18.40
70435;BMP280;57876;47.792;12.960;2022-11-14T10:35:52;96758.94;;;18.39
70435;BMP280;57876;47.792;12.960;2022-11-14T10:40:53;96755.34;;;18.36
70435;BMP280;57876;47.792;12.960;2022-11-14T10:43:26;96747.81;;;18.37
70435;BMP280;57876;47.792;12.960;2022-11-14T10:46:16;96758.06;;;18.36
70435;BMP280;57876;47.792;12.960;2022-11-14T10:48:43;96759.38;;;18.35
70435;BMP280;57876;47.792;12.960;2022-11-14T10:56:20;96753.00;;;18.33
70435;BMP280;57876;47.792;12.960;2022-11-14T10:58:45;96753.72;;;18.33
70435;BMP280;57876;47.792;12.960;2022-11-14T11:01:41;96742.78;;;18.33
70435;BMP280;57876;47.792;12.960;2022-11-14T11:04:30;96745.66;;;18.35
70435;BMP280;57876;47.792;12.960;2022-11-14T11:06:56;96752.03;;;18.38
70435;BMP280;57876;47.792;12.960;2022-11-14T11:09:26;96755.75;;;18.42
70435;BMP280;57876;47.792;12.960;2022-11-14T11:12:21;96739.94;;;18.41
70435;BMP280;57876;47.792;12.960;2022-11-14T11:14:48;96745.97;;;18.39
70435;BMP280;57876;47.792;12.960;2022-11-14T11:17:14;96743.81;;;18.38
70435;BMP280;57876;47.792;12.960;2022-11-14T11:19:38;96739.03;;;18.38
70435;BMP280;57876;47.792;12.960;2022-11-14T11:22:04;96741.06;;;18.38
70435;BMP280;57876;47.792;12.960;2022-11-14T11:24:34;96742.34;;;18.37
70435;BMP280;57876;47.792;12.960;2022-11-14T11:29:43;96730.69;;;18.36
70435;BMP280;57876;47.792;12.960;2022-11-14T11:32:07;96732.69;;;18.36
70435;BMP280;57876;47.792;12.960;2022-11-14T11:34:33;96731.97;;;18.35
70435;BMP280;57876;47.792;12.960;2022-11-14T11:39:52;96731.97;;;18.35
70435;BMP280;57876;47.792;12.960;2022-11-14T11:42:29;96738.75;;;18.34
70435;BMP280;57876;47.792;12.960;2022-11-14T11:44:58;96740.75;;;18.34
70435;BMP280;57876;47.792;12.960;2022-11-14T11:47:24;96738.16;;;18.36
70435;BMP280;57876;47.792;12.960;2022-11-14T11:49:51;96744.22;;;18.34
70435;BMP280;57876;47.792;12.960;2022-11-14T11:52:33;96738.75;;;18.34
70435;BMP280;57876;47.792;12.960;2022-11-14T11:58:21;96743.34;;;18.32
70435;BMP280;57876;47.792;12.960;2022-11-14T12:00:43;96742.50;;;18.29
70435;BMP280;57876;47.792;12.960;2022-11-14T12:03:11;96743.19;;;18.30
70435;BMP280;57876;47.792;12.960;2022-11-14T12:05:44;96746.09;;;18.32
70435;BMP280;57876;47.792;12.960;2022-11-14T12:08:19;96744.78;;;18.33
70435;BMP280;57876;47.792;12.960;2022-11-14T12:10:47;96745.38;;;18.31
70435;BMP280;57876;47.792;12.960;2022-11-14T12:21:11;96747.81;;;18.37
70435;BMP280;57876;47.792;12.960;2022-11-14T12:32:28;96756.75;;;18.37
70435;BMP280;57876;47.792;12.960;2022-11-14T12:34:54;96764.25;;;18.37
70435;BMP280;57876;47.792;12.960;2022-11-14T12:37:23;96754.75;;;18.38
70435;BMP280;57876;47.792;12.960;2022-11-14T12:40:29;96756.75;;;18.37
70435;BMP280;57876;47.792;12.960;2022-11-14T12:42:56;96759.50;;;18.37
70435;BMP280;57876;47.792;12.960;2022-11-14T12:48:28;96762.97;;;18.38
70435;BMP280;57876;47.792;12.960;2022-11-14T12:50:54;96762.97;;;18.38
70435;BMP280;57876;47.792;12.960;2022-11-14T12:58:46;96770.59;;;18.39
70435;BMP280;57876;47.792;12.960;2022-11-14T13:04:09;96767.16;;;18.39
70435;BMP280;57876;47.792;12.960;2022-11-14T13:11:44;96770.59;;;18.39
70435;BMP280;57876;47.792;12.960;2022-11-14T13:14:29;96776.09;;;18.39
70435;BMP280;57876;47.792;12.960;2022-11-14T13:20:24;96774.09;;;18.40
70435;BMP280;57876;47.792;12.960;2022-11-14T13:31:24;96767.16;;;18.39
70435;BMP280;57876;47.792;12.960;2022-11-14T13:33:52;96771.34;;;18.40
70435;BMP280;57876;47.792;12.960;2022-11-14T13:36:28;96765.13;;;18.39
70435;BMP280;57876;47.792;12.960;2022-11-14T13:44:46;96780.84;;;18.39
70435;BMP280;57876;47.792;12.960;2022-11-14T13:49:58;96771.34;;;18.40
70435;BMP280;57876;47.792;12.960;2022-11-14T13:52:27;96782.31;;;18.40
70435;BMP280;57876;47.792;12.960;2022-11-14T13:54:53;96777.53;;;18.40
70435;BMP280;57876;47.792;12.960;2022-11-14T14:00:14;96780.28;;;18.40
70435;BMP280;57876;47.792;12.960;2022-11-14T14:11:29;96769.31;;;18.40
70435;BMP280;57876;47.792;12.960;2022-11-14T14:17:19;96755.63;;;18.40
70435;BMP280;57876;47.792;12.960;2022-11-14T14:30:38;96771.78;;;18.46
70435;BMP280;57876;47.792;12.960;2022-11-14T14:33:10;96779.31;;;18.45
70435;BMP280;57876;47.792;12.960;2022-11-14T14:35:36;96774.94;;;18.42
70435;BMP280;57876;47.792;12.960;2022-11-14T14:38:09;96780.28;;;18.40
70435;BMP280;57876;47.792;12.960;2022-11-14T14:40:36;96779.84;;;18.44
70435;BMP280;57876;47.792;12.960;2022-11-14T14:43:04;96784.78;;;18.45
70435;BMP280;57876;47.792;12.960;2022-11-14T14:45:29;96784.78;;;18.45
70435;BMP280;57876;47.792;12.960;2022-11-14T14:48:01;96781.44;;;18.47
70435;BMP280;57876;47.792;12.960;2022-11-14T14:50:30;96781.59;;;18.49
70435;BMP280;57876;47.792;12.960;2022-11-14T14:52:58;96778.44;;;18.52
70435;BMP280;57876;47.792;12.960;2022-11-14T14:55:27;96776.41;;;18.53
70435;BMP280;57876;47.792;12.960;2022-11-14T14:57:52;96775.13;;;18.54
70435;BMP280;57876;47.792;12.960;2022-11-14T15:00:24;96772.38;;;18.54
70435;BMP280;57876;47.792;12.960;2022-11-14T15:02:54;96774.53;;;18.55
70435;BMP280;57876;47.792;12.960;2022-11-14T15:05:26;96769.78;;;18.56
70435;BMP280;57876;47.792;12.960;2022-11-14T15:07:56;96784.19;;;18.56
70435;BMP280;57876;47.792;12.960;2022-11-14T15:10:23;96778.00;;;18.56
70435;BMP280;57876;47.792;12.960;2022-11-14T15:12:49;96783.63;;;18.58
70435;BMP280;57876;47.792;12.960;2022-11-14T15:15:15;96781.59;;;18.58
70435;BMP280;57876;47.792;12.960;2022-11-14T15:17:40;96783.63;;;18.58
70435;BMP280;57876;47.792;12.960;2022-11-14T15:20:19;96783.63;;;18.58
70435;BMP280;57876;47.792;12.960;2022-11-14T15:23:01;96789.13;;;18.58
70435;BMP280;57876;47.792;12.960;2022-11-14T15:25:26;96809.75;;;18.59
70435;BMP280;57876;47.792;12.960;2022-11-14T15:27:52;96817.22;;;18.58
70435;BMP280;57876;47.792;12.960;2022-11-14T15:30:26;96809.75;;;18.59
70435;BMP280;57876;47.792;12.960;2022-11-14T15:32:53;96817.22;;;18.58
70435;BMP280;57876;47.792;12.960;2022-11-14T15:37:59;96823.44;;;18.59
70435;BMP280;57876;47.792;12.960;2022-11-14T15:40:24;96831.66;;;18.59
70435;BMP280;57876;47.792;12.960;2022-11-14T15:42:48;96831.66;;;18.59
70435;BMP280;57876;47.792;12.960;2022-11-14T15:47:46;96834.41;;;18.59
70435;BMP280;57876;47.792;12.960;2022-11-14T15:52:39;96853.59;;;18.59
70435;BMP280;57876;47.792;12.960;2022-11-14T15:55:20;96863.22;;;18.60
70435;BMP280;57876;47.792;12.960;2022-11-14T15:57:45;96876.94;;;18.60
70435;BMP280;57876;47.792;12.960;2022-11-14T16:00:13;96870.16;;;18.61
70435;BMP280;57876;47.792;12.960;2022-11-14T16:02:56;96878.38;;;18.61
70435;BMP280;57876;47.792;12.960;2022-11-14T16:05:25;96887.34;;;18.61